Minneapolis, Minnesota
Current Conditions -  °F | °C
As of 12:53 AM on Wednesday 22 Oct 2014 (Local Time) from KMSP Reporting Station
Clear Clear  
Wind Chill: 38°   Ceiling: Unl
Heat Index: 44°   Visibility: 10mi
Dew Point: 37°   Wind: 12mph
Humidity: 76%   Direction: 140°SE
Pressure: 30.18"   Gusts: NA
Location:  44.98°N, 93.26°W
Report Text: KMSP 220553Z 14010KT 10SM CLR 07/03 A3018 RMK AO2 SLP223 T00670028 10117 20067 401440033 51001
Loading
Personal Weather Stations






























Interactive Weather Map
Tropical Storm Tracking
New forecast layout! Learn more

10-Day Weather Forecast

Advertisements
Track Severe Weather on mobile